JBU1059 KJFK-MKJP
Flight info
| Callsign | JBU1059 |
|---|---|
| Flight time | 3h 21m |
| Altitude | 36000 |
| Route | WAVEY DCT EMJAY Q167 ZJAAY DCT KALDA DCT TUGGR Q101 SKARP DCT IDOLS DCT RROOO Y323 CARPX Y307 ENAMO DCT NEFTU/N0452F370 UP525 EMABU UA301 IMADI DCT SAVEM ELSER6 |
| Aircraft | A21N/M-SDE3FGHIRWY/LB1 |
Departure
| Time | 2026-05-06 22:51 |
|---|---|
| Airport | John F. Kennedy International Airport (KJFK) |
Arrival
| Time | 2026-05-07 02:12 |
|---|---|
| Airport | Norman Manley International Airport (MKJP) |
| Time | Latitude | Longitude | Altitude | Speed | Heading |
|---|---|---|---|---|---|
| 2026-05-06 22:36 | 40.64526 | -73.77237 | 15 ft | 0 kts | 1° |
| 2026-05-06 22:42 | 40.64518 | -73.77237 | 15 ft | 2 kts | 1° |
| 2026-05-06 22:42 | 40.64503 | -73.77237 | 15 ft | 2 kts | 1° |
| 2026-05-06 22:43 | 40.64488 | -73.77241 | 15 ft | 2 kts | 26° |
| 2026-05-06 22:43 | 40.64475 | -73.77252 | 15 ft | 2 kts | 44° |
| 2026-05-06 22:43 | 40.64469 | -73.77261 | 15 ft | 1 kts | 55° |
| 2026-05-06 22:43 | 40.64466 | -73.77268 | 15 ft | 0 kts | 56° |
| 2026-05-06 22:45 | 40.64469 | -73.77260 | 15 ft | 3 kts | 70° |
| 2026-05-06 22:45 | 40.64465 | -73.77226 | 15 ft | 4 kts | 107° |
| 2026-05-06 22:46 | 40.64454 | -73.77192 | 15 ft | 4 kts | 111° |
| 2026-05-06 22:46 | 40.64445 | -73.77154 | 15 ft | 4 kts | 107° |
| 2026-05-06 22:46 | 40.64435 | -73.77106 | 15 ft | 5 kts | 106° |
| 2026-05-06 22:46 | 40.64427 | -73.77045 | 15 ft | 7 kts | 85° |
| 2026-05-06 22:47 | 40.64458 | -73.77005 | 15 ft | 4 kts | 13° |
| 2026-05-06 22:47 | 40.64498 | -73.76990 | 15 ft | 7 kts | 20° |
| 2026-05-06 22:47 | 40.64557 | -73.76949 | 15 ft | 10 kts | 30° |
| 2026-05-06 22:47 | 40.64623 | -73.76899 | 15 ft | 11 kts | 30° |
| 2026-05-06 22:48 | 40.64693 | -73.76844 | 15 ft | 12 kts | 30° |
| 2026-05-06 22:48 | 40.64766 | -73.76786 | 15 ft | 12 kts | 31° |
| 2026-05-06 22:48 | 40.64844 | -73.76724 | 15 ft | 13 kts | 31° |
| 2026-05-06 22:48 | 40.64925 | -73.76661 | 15 ft | 13 kts | 30° |
| 2026-05-06 22:49 | 40.65008 | -73.76597 | 15 ft | 14 kts | 31° |
| 2026-05-06 22:49 | 40.65091 | -73.76526 | 15 ft | 13 kts | 51° |
| 2026-05-06 22:49 | 40.65070 | -73.76413 | 15 ft | 13 kts | 123° |
| 2026-05-06 22:49 | 40.65002 | -73.76372 | 15 ft | 11 kts | 203° |
| 2026-05-06 22:50 | 40.64923 | -73.76431 | 15 ft | 20 kts | 211° |
| 2026-05-06 22:50 | 40.64589 | -73.76693 | 15 ft | 90 kts | 211° |
| 2026-05-06 22:50 | 40.63874 | -73.77253 | 16 ft | 148 kts | 210° |
| 2026-05-06 22:50 | 40.62900 | -73.78022 | 301 ft | 170 kts | 211° |
| 2026-05-06 22:51 | 40.61877 | -73.78821 | 974 ft | 171 kts | 211° |
| 2026-05-06 22:51 | 40.60886 | -73.79582 | 1804 ft | 163 kts | 212° |
| 2026-05-06 22:51 | 40.59839 | -73.80135 | 2232 ft | 175 kts | 189° |
| 2026-05-06 22:51 | 40.58587 | -73.79666 | 2506 ft | 204 kts | 152° |
| 2026-05-06 22:52 | 40.57601 | -73.78188 | 2806 ft | 230 kts | 122° |
| 2026-05-06 22:52 | 40.57180 | -73.76058 | 3110 ft | 253 kts | 99° |
| 2026-05-06 22:52 | 40.56976 | -73.73679 | 3429 ft | 270 kts | 105° |
| 2026-05-06 22:52 | 40.56182 | -73.71464 | 3813 ft | 271 kts | 139° |
| 2026-05-06 22:53 | 40.54677 | -73.70059 | 4375 ft | 269 kts | 157° |
| 2026-05-06 22:53 | 40.53039 | -73.68863 | 5063 ft | 274 kts | 156° |
| 2026-05-06 22:53 | 40.51405 | -73.67559 | 5648 ft | 279 kts | 153° |
| 2026-05-06 22:53 | 40.49783 | -73.66129 | 5953 ft | 282 kts | 151° |
| 2026-05-06 22:54 | 40.48180 | -73.64614 | 5988 ft | 283 kts | 149° |
| 2026-05-06 22:54 | 40.46606 | -73.63062 | 5990 ft | 284 kts | 148° |
| 2026-05-06 22:54 | 40.45036 | -73.61483 | 5995 ft | 284 kts | 148° |
| 2026-05-06 22:54 | 40.43475 | -73.59897 | 5996 ft | 285 kts | 148° |
| 2026-05-06 22:55 | 40.41904 | -73.58293 | 5994 ft | 284 kts | 148° |
| 2026-05-06 22:55 | 40.40345 | -73.56704 | 6061 ft | 290 kts | 147° |
| 2026-05-06 22:55 | 40.38725 | -73.55049 | 6690 ft | 294 kts | 148° |
| 2026-05-06 22:55 | 40.37133 | -73.53413 | 7526 ft | 293 kts | 148° |
| 2026-05-06 22:56 | 40.35541 | -73.51779 | 8258 ft | 295 kts | 149° |
| 2026-05-06 22:56 | 40.33928 | -73.50133 | 8921 ft | 298 kts | 149° |
| 2026-05-06 22:56 | 40.32287 | -73.48460 | 9580 ft | 302 kts | 150° |
| 2026-05-06 22:56 | 40.30618 | -73.46756 | 10242 ft | 304 kts | 150° |
| 2026-05-06 22:57 | 40.28928 | -73.45043 | 10655 ft | 316 kts | 150° |
| 2026-05-06 22:57 | 40.27156 | -73.43253 | 10963 ft | 330 kts | 149° |
| 2026-05-06 22:57 | 40.25307 | -73.41372 | 11495 ft | 337 kts | 149° |
| 2026-05-06 22:57 | 40.23456 | -73.39492 | 12086 ft | 339 kts | 150° |
| 2026-05-06 22:58 | 40.21561 | -73.37687 | 12681 ft | 342 kts | 152° |
| 2026-05-06 22:58 | 40.19604 | -73.35850 | 13284 ft | 344 kts | 152° |
| 2026-05-06 22:58 | 40.17677 | -73.34045 | 13876 ft | 346 kts | 152° |
| 2026-05-06 22:58 | 40.15690 | -73.32184 | 14440 ft | 349 kts | 152° |
| 2026-05-06 22:59 | 40.13717 | -73.30341 | 14926 ft | 353 kts | 152° |
| 2026-05-06 22:59 | 40.11625 | -73.28701 | 15413 ft | 345 kts | 169° |
| 2026-05-06 22:59 | 40.09338 | -73.28262 | 15839 ft | 328 kts | 192° |
| 2026-05-06 22:59 | 40.07178 | -73.28949 | 16293 ft | 316 kts | 211° |
| 2026-05-06 23:00 | 40.05385 | -73.30479 | 16748 ft | 309 kts | 227° |
| 2026-05-06 23:00 | 40.03749 | -73.32353 | 17224 ft | 313 kts | 227° |
| 2026-05-06 23:00 | 40.02110 | -73.34216 | 17555 ft | 320 kts | 227° |
| 2026-05-06 23:00 | 40.00402 | -73.36144 | 17951 ft | 325 kts | 227° |
| 2026-05-06 23:01 | 39.98681 | -73.38075 | 18394 ft | 327 kts | 227° |
| 2026-05-06 23:01 | 39.96958 | -73.40005 | 18875 ft | 328 kts | 227° |
| 2026-05-06 23:01 | 39.95229 | -73.41934 | 19352 ft | 329 kts | 227° |
| 2026-05-06 23:01 | 39.93505 | -73.43859 | 19801 ft | 330 kts | 228° |
| 2026-05-06 23:02 | 39.91748 | -73.45815 | 20261 ft | 331 kts | 228° |
| 2026-05-06 23:02 | 39.90018 | -73.47742 | 20697 ft | 332 kts | 228° |
| 2026-05-06 23:02 | 39.88258 | -73.49703 | 21133 ft | 332 kts | 229° |
| 2026-05-06 23:02 | 39.86513 | -73.51641 | 21571 ft | 332 kts | 229° |
| 2026-05-06 23:03 | 39.84744 | -73.53604 | 22003 ft | 333 kts | 229° |
| 2026-05-06 23:03 | 39.83007 | -73.55543 | 22378 ft | 334 kts | 229° |
| 2026-05-06 23:03 | 39.81226 | -73.57523 | 22743 ft | 336 kts | 230° |
| 2026-05-06 23:03 | 39.79469 | -73.59482 | 23144 ft | 336 kts | 230° |
| 2026-05-06 23:04 | 39.77684 | -73.61464 | 23547 ft | 336 kts | 229° |
| 2026-05-06 23:04 | 39.75920 | -73.63432 | 23919 ft | 337 kts | 229° |
| 2026-05-06 23:04 | 39.74136 | -73.65409 | 24257 ft | 339 kts | 229° |
| 2026-05-06 23:04 | 39.72340 | -73.67402 | 24607 ft | 341 kts | 229° |
| 2026-05-06 23:05 | 39.70530 | -73.69408 | 24979 ft | 343 kts | 229° |
| 2026-05-06 23:05 | 39.68708 | -73.71434 | 25291 ft | 345 kts | 229° |
| 2026-05-06 23:05 | 39.66902 | -73.73437 | 25632 ft | 347 kts | 229° |
| 2026-05-06 23:05 | 39.65060 | -73.75473 | 25971 ft | 348 kts | 229° |
| 2026-05-06 23:06 | 39.63206 | -73.77522 | 26288 ft | 350 kts | 229° |
| 2026-05-06 23:06 | 39.61348 | -73.79572 | 26643 ft | 351 kts | 229° |
| 2026-05-06 23:06 | 39.59509 | -73.81606 | 26942 ft | 352 kts | 229° |
| 2026-05-06 23:06 | 39.57635 | -73.83678 | 27237 ft | 354 kts | 229° |
| 2026-05-06 23:07 | 39.55770 | -73.85732 | 27489 ft | 357 kts | 229° |
| 2026-05-06 23:07 | 39.53873 | -73.87826 | 27749 ft | 359 kts | 229° |
| 2026-05-06 23:07 | 39.51968 | -73.89922 | 28110 ft | 359 kts | 229° |
| 2026-05-06 23:07 | 39.50083 | -73.91995 | 28419 ft | 359 kts | 229° |
| 2026-05-06 23:08 | 39.48170 | -73.94102 | 28769 ft | 359 kts | 229° |
| 2026-05-06 23:08 | 39.46275 | -73.96183 | 29031 ft | 361 kts | 229° |
| 2026-05-06 23:08 | 39.44350 | -73.98296 | 29349 ft | 362 kts | 230° |
| 2026-05-06 23:08 | 39.42435 | -74.00391 | 29651 ft | 362 kts | 230° |
| 2026-05-06 23:09 | 39.40512 | -74.02500 | 29900 ft | 364 kts | 230° |
| 2026-05-06 23:09 | 39.38573 | -74.04623 | 30192 ft | 364 kts | 230° |
| 2026-05-06 23:09 | 39.36653 | -74.06719 | 30484 ft | 364 kts | 229° |
| 2026-05-06 23:09 | 39.34716 | -74.08833 | 30713 ft | 366 kts | 230° |
| 2026-05-06 23:10 | 39.32774 | -74.10949 | 30893 ft | 369 kts | 230° |
| 2026-05-06 23:10 | 39.30812 | -74.13093 | 31097 ft | 371 kts | 229° |
| 2026-05-06 23:10 | 39.28836 | -74.15252 | 31419 ft | 370 kts | 230° |
| 2026-05-06 23:10 | 39.26886 | -74.17366 | 31767 ft | 368 kts | 230° |
| 2026-05-06 23:11 | 39.24920 | -74.19501 | 32041 ft | 368 kts | 229° |
| 2026-05-06 23:11 | 39.22989 | -74.21612 | 32380 ft | 366 kts | 230° |
| 2026-05-06 23:11 | 39.21036 | -74.23726 | 32773 ft | 363 kts | 230° |
| 2026-05-06 23:11 | 39.19118 | -74.25806 | 33092 ft | 361 kts | 230° |
| 2026-05-06 23:12 | 39.17190 | -74.27902 | 33410 ft | 360 kts | 231° |
| 2026-05-06 23:12 | 39.15293 | -74.29957 | 33670 ft | 360 kts | 230° |
| 2026-05-06 23:12 | 39.13376 | -74.32037 | 33960 ft | 359 kts | 231° |
| 2026-05-06 23:12 | 39.11479 | -74.34096 | 34218 ft | 360 kts | 231° |
| 2026-05-06 23:13 | 39.09555 | -74.36176 | 34481 ft | 359 kts | 231° |
| 2026-05-06 23:13 | 39.07638 | -74.38245 | 34680 ft | 361 kts | 231° |
| 2026-05-06 23:13 | 39.05720 | -74.40326 | 34828 ft | 363 kts | 231° |
| 2026-05-06 23:13 | 39.03786 | -74.42417 | 35034 ft | 363 kts | 231° |
| 2026-05-06 23:14 | 39.01859 | -74.44494 | 35267 ft | 364 kts | 231° |
| 2026-05-06 23:14 | 38.99936 | -74.46567 | 35407 ft | 365 kts | 231° |
| 2026-05-06 23:14 | 38.97973 | -74.48679 | 35528 ft | 367 kts | 232° |
| 2026-05-06 23:14 | 38.96032 | -74.50774 | 35687 ft | 368 kts | 232° |
| 2026-05-06 23:15 | 38.94066 | -74.52906 | 35875 ft | 366 kts | 233° |
| 2026-05-06 23:15 | 38.90327 | -74.57283 | 35882 ft | 364 kts | 233° |
| 2026-05-06 23:16 | 38.86568 | -74.61679 | 35886 ft | 366 kts | 233° |
| 2026-05-06 23:16 | 38.82805 | -74.66079 | 35886 ft | 368 kts | 233° |
| 2026-05-06 23:17 | 38.79028 | -74.70488 | 35883 ft | 368 kts | 233° |
| 2026-05-06 23:17 | 38.75235 | -74.74881 | 35886 ft | 371 kts | 231° |
| 2026-05-06 23:18 | 38.71188 | -74.79131 | 35886 ft | 375 kts | 230° |
| 2026-05-06 23:18 | 38.67167 | -74.83335 | 35891 ft | 374 kts | 230° |
| 2026-05-06 23:19 | 38.63133 | -74.87542 | 35894 ft | 377 kts | 230° |
| 2026-05-06 23:19 | 38.59063 | -74.91769 | 35886 ft | 377 kts | 231° |
| 2026-05-06 23:20 | 38.55009 | -74.95980 | 35888 ft | 378 kts | 230° |
| 2026-05-06 23:20 | 38.50990 | -75.00324 | 35886 ft | 375 kts | 232° |
| 2026-05-06 23:21 | 38.47053 | -75.04655 | 35889 ft | 380 kts | 230° |
| 2026-05-06 23:21 | 38.42819 | -75.08753 | 35896 ft | 384 kts | 229° |
| 2026-05-06 23:22 | 38.38534 | -75.12839 | 35894 ft | 382 kts | 228° |
| 2026-05-06 23:22 | 38.34291 | -75.16872 | 35893 ft | 385 kts | 228° |
| 2026-05-06 23:23 | 38.29990 | -75.20948 | 35896 ft | 384 kts | 228° |
| 2026-05-06 23:23 | 38.25704 | -75.25011 | 35893 ft | 385 kts | 229° |
| 2026-05-06 23:24 | 38.21400 | -75.29089 | 35897 ft | 387 kts | 229° |
| 2026-05-06 23:24 | 38.17088 | -75.33163 | 35899 ft | 389 kts | 229° |
| 2026-05-06 23:25 | 38.12776 | -75.37228 | 35903 ft | 386 kts | 228° |
| 2026-05-06 23:25 | 38.08454 | -75.41292 | 35905 ft | 386 kts | 228° |
| 2026-05-06 23:26 | 38.04138 | -75.45314 | 35904 ft | 390 kts | 227° |
| 2026-05-06 23:26 | 37.99655 | -75.49216 | 35907 ft | 390 kts | 226° |
| 2026-05-06 23:27 | 37.95177 | -75.53098 | 35914 ft | 392 kts | 226° |
| 2026-05-06 23:27 | 37.90664 | -75.56928 | 35905 ft | 397 kts | 223° |
| 2026-05-06 23:28 | 37.85510 | -75.59926 | 35905 ft | 417 kts | 212° |
| 2026-05-06 23:28 | 37.79704 | -75.61563 | 35905 ft | 438 kts | 199° |
| 2026-05-06 23:28 | 37.76637 | -75.61779 | 35901 ft | 449 kts | 192° |
| 2026-05-06 23:29 | 37.73518 | -75.61684 | 35907 ft | 453 kts | 191° |
| 2026-05-06 23:29 | 37.67250 | -75.61735 | 35907 ft | 447 kts | 197° |
| 2026-05-06 23:30 | 37.61186 | -75.62638 | 35907 ft | 438 kts | 202° |
| 2026-05-06 23:30 | 37.55204 | -75.63923 | 35905 ft | 435 kts | 202° |
| 2026-05-06 23:31 | 37.49210 | -75.65214 | 35909 ft | 434 kts | 202° |
| 2026-05-06 23:31 | 37.43262 | -75.66499 | 35905 ft | 436 kts | 202° |
| 2026-05-06 23:32 | 37.37243 | -75.67797 | 35904 ft | 439 kts | 201° |
| 2026-05-06 23:32 | 37.31213 | -75.69095 | 35909 ft | 443 kts | 201° |
| 2026-05-06 23:33 | 37.25156 | -75.70394 | 35910 ft | 444 kts | 201° |
| 2026-05-06 23:33 | 37.19085 | -75.71689 | 35905 ft | 440 kts | 201° |
| 2026-05-06 23:34 | 37.13076 | -75.73009 | 35901 ft | 439 kts | 203° |
| 2026-05-06 23:34 | 37.07223 | -75.74921 | 35902 ft | 431 kts | 209° |
| 2026-05-06 23:35 | 37.01679 | -75.77599 | 35908 ft | 423 kts | 215° |
| 2026-05-06 23:35 | 36.96500 | -75.80937 | 35908 ft | 417 kts | 220° |
| 2026-05-06 23:36 | 36.91406 | -75.84470 | 35917 ft | 418 kts | 220° |
| 2026-05-06 23:36 | 36.86357 | -75.87964 | 35918 ft | 418 kts | 220° |
| 2026-05-06 23:37 | 36.81265 | -75.91487 | 35916 ft | 417 kts | 220° |
| 2026-05-06 23:37 | 36.76091 | -75.94890 | 35919 ft | 428 kts | 216° |
| 2026-05-06 23:38 | 36.70610 | -75.97791 | 35920 ft | 426 kts | 214° |
| 2026-05-06 23:38 | 36.65120 | -76.00670 | 35924 ft | 430 kts | 215° |
| 2026-05-06 23:39 | 36.59587 | -76.03607 | 35924 ft | 432 kts | 214° |
| 2026-05-06 23:39 | 36.54084 | -76.06539 | 35931 ft | 430 kts | 215° |
| 2026-05-06 23:40 | 36.48586 | -76.09466 | 35928 ft | 430 kts | 215° |
| 2026-05-06 23:40 | 36.43098 | -76.12393 | 35927 ft | 431 kts | 216° |
| 2026-05-06 23:41 | 36.37602 | -76.15321 | 35933 ft | 430 kts | 216° |
| 2026-05-06 23:41 | 36.32113 | -76.18243 | 35936 ft | 430 kts | 216° |
| 2026-05-06 23:42 | 36.26633 | -76.21154 | 35936 ft | 431 kts | 215° |
| 2026-05-06 23:42 | 36.21102 | -76.24083 | 35935 ft | 432 kts | 216° |
| 2026-05-06 23:43 | 36.15573 | -76.27010 | 35935 ft | 430 kts | 216° |
| 2026-05-06 23:43 | 36.10074 | -76.29918 | 35937 ft | 433 kts | 216° |
| 2026-05-06 23:44 | 36.04541 | -76.32843 | 35942 ft | 434 kts | 216° |
| 2026-05-06 23:44 | 35.99011 | -76.35754 | 35947 ft | 434 kts | 216° |
| 2026-05-06 23:45 | 35.93472 | -76.38672 | 35944 ft | 436 kts | 216° |
| 2026-05-06 23:45 | 35.87888 | -76.41602 | 35945 ft | 433 kts | 216° |
| 2026-05-06 23:46 | 35.82356 | -76.44503 | 35948 ft | 435 kts | 216° |
| 2026-05-06 23:46 | 35.76765 | -76.47433 | 35943 ft | 433 kts | 216° |
| 2026-05-06 23:47 | 35.71264 | -76.50303 | 35945 ft | 432 kts | 216° |
| 2026-05-06 23:47 | 35.65707 | -76.53210 | 35951 ft | 436 kts | 216° |
| 2026-05-06 23:48 | 35.60142 | -76.56113 | 35951 ft | 434 kts | 216° |
| 2026-05-06 23:48 | 35.54601 | -76.58996 | 35956 ft | 432 kts | 216° |
| 2026-05-06 23:49 | 35.49050 | -76.61879 | 35954 ft | 433 kts | 216° |
| 2026-05-06 23:49 | 35.43512 | -76.64754 | 35965 ft | 435 kts | 217° |
| 2026-05-06 23:50 | 35.37902 | -76.67667 | 35969 ft | 437 kts | 216° |
| 2026-05-06 23:50 | 35.29512 | -76.72007 | 35978 ft | 437 kts | 216° |
| 2026-05-06 23:51 | 35.23904 | -76.74897 | 35980 ft | 436 kts | 216° |
| 2026-05-06 23:51 | 35.18317 | -76.77779 | 35984 ft | 438 kts | 216° |
| 2026-05-06 23:52 | 35.12714 | -76.80666 | 35996 ft | 438 kts | 216° |
| 2026-05-06 23:52 | 35.07093 | -76.83556 | 35994 ft | 437 kts | 216° |
| 2026-05-06 23:53 | 35.01482 | -76.86433 | 35997 ft | 437 kts | 216° |
| 2026-05-06 23:53 | 34.95886 | -76.89301 | 35995 ft | 438 kts | 216° |
| 2026-05-06 23:54 | 34.90267 | -76.92173 | 36001 ft | 437 kts | 216° |
| 2026-05-06 23:54 | 34.84621 | -76.95064 | 35997 ft | 439 kts | 215° |
| 2026-05-06 23:55 | 34.78996 | -76.97935 | 36009 ft | 440 kts | 215° |
| 2026-05-06 23:55 | 34.73347 | -77.00806 | 36007 ft | 438 kts | 216° |
| 2026-05-06 23:56 | 34.67678 | -77.03696 | 36009 ft | 442 kts | 215° |
| 2026-05-06 23:56 | 34.62043 | -77.06554 | 36008 ft | 443 kts | 215° |
| 2026-05-06 23:57 | 34.56353 | -77.09442 | 36008 ft | 443 kts | 215° |
| 2026-05-06 23:57 | 34.50680 | -77.12314 | 36014 ft | 443 kts | 215° |
| 2026-05-06 23:58 | 34.45009 | -77.15179 | 36012 ft | 442 kts | 215° |
| 2026-05-06 23:58 | 34.39327 | -77.18050 | 36003 ft | 443 kts | 215° |
| 2026-05-06 23:59 | 34.33628 | -77.20926 | 36011 ft | 441 kts | 215° |
| 2026-05-06 23:59 | 34.27924 | -77.23797 | 36011 ft | 443 kts | 215° |
| 2026-05-07 00:00 | 34.22269 | -77.26634 | 36014 ft | 441 kts | 215° |
| 2026-05-07 00:00 | 34.16587 | -77.29491 | 36019 ft | 443 kts | 215° |
| 2026-05-07 00:01 | 34.10926 | -77.32326 | 36016 ft | 443 kts | 214° |
| 2026-05-07 00:01 | 34.05196 | -77.35194 | 36021 ft | 445 kts | 214° |
| 2026-05-07 00:02 | 33.99511 | -77.38033 | 36028 ft | 442 kts | 214° |
| 2026-05-07 00:02 | 33.93818 | -77.40869 | 36026 ft | 442 kts | 214° |
| 2026-05-07 00:03 | 33.88133 | -77.43705 | 36024 ft | 444 kts | 214° |
| 2026-05-07 00:03 | 33.82462 | -77.46526 | 36027 ft | 442 kts | 214° |
| 2026-05-07 00:04 | 33.76738 | -77.49373 | 36036 ft | 445 kts | 214° |
| 2026-05-07 00:04 | 33.71035 | -77.52205 | 36030 ft | 444 kts | 214° |
| 2026-05-07 00:05 | 33.65322 | -77.54993 | 36034 ft | 445 kts | 212° |
| 2026-05-07 00:05 | 33.59374 | -77.57225 | 36042 ft | 456 kts | 205° |
| 2026-05-07 00:06 | 33.53068 | -77.58677 | 36037 ft | 468 kts | 198° |
| 2026-05-07 00:06 | 33.46531 | -77.59273 | 36040 ft | 474 kts | 193° |
| 2026-05-07 00:07 | 33.39929 | -77.59606 | 36039 ft | 476 kts | 193° |
| 2026-05-07 00:07 | 33.33301 | -77.59951 | 36035 ft | 479 kts | 193° |
| 2026-05-07 00:08 | 33.26665 | -77.60298 | 36030 ft | 475 kts | 193° |
| 2026-05-07 00:08 | 33.20079 | -77.60643 | 36034 ft | 477 kts | 193° |
| 2026-05-07 00:09 | 33.13442 | -77.60996 | 36041 ft | 477 kts | 193° |
| 2026-05-07 00:09 | 33.06839 | -77.61340 | 36040 ft | 474 kts | 193° |
| 2026-05-07 00:10 | 33.00242 | -77.61696 | 36038 ft | 477 kts | 193° |
| 2026-05-07 00:10 | 32.93628 | -77.62041 | 36044 ft | 474 kts | 193° |
| 2026-05-07 00:11 | 32.87016 | -77.62392 | 36047 ft | 477 kts | 193° |
| 2026-05-07 00:11 | 32.80389 | -77.62737 | 36047 ft | 478 kts | 193° |
| 2026-05-07 00:12 | 32.73725 | -77.63088 | 36053 ft | 478 kts | 193° |
| 2026-05-07 00:12 | 32.67093 | -77.63436 | 36052 ft | 478 kts | 193° |
| 2026-05-07 00:13 | 32.60454 | -77.63783 | 36057 ft | 478 kts | 193° |
| 2026-05-07 00:13 | 32.53817 | -77.64129 | 36058 ft | 476 kts | 193° |
| 2026-05-07 00:14 | 32.47161 | -77.64478 | 36062 ft | 479 kts | 193° |
| 2026-05-07 00:14 | 32.40548 | -77.64823 | 36059 ft | 478 kts | 193° |
| 2026-05-07 00:15 | 32.33881 | -77.65170 | 36062 ft | 479 kts | 192° |
| 2026-05-07 00:15 | 32.27197 | -77.65516 | 36069 ft | 480 kts | 192° |
| 2026-05-07 00:16 | 32.20547 | -77.65860 | 36070 ft | 479 kts | 192° |
| 2026-05-07 00:16 | 32.13899 | -77.66206 | 36072 ft | 479 kts | 192° |
| 2026-05-07 00:17 | 32.07239 | -77.66550 | 36071 ft | 479 kts | 192° |
| 2026-05-07 00:17 | 32.00574 | -77.66895 | 36075 ft | 480 kts | 192° |
| 2026-05-07 00:18 | 31.93877 | -77.67238 | 36076 ft | 480 kts | 192° |
| 2026-05-07 00:18 | 31.87216 | -77.67581 | 36077 ft | 480 kts | 192° |
| 2026-05-07 00:19 | 31.80579 | -77.67921 | 36080 ft | 479 kts | 192° |
| 2026-05-07 00:19 | 31.73923 | -77.68263 | 36085 ft | 478 kts | 192° |
| 2026-05-07 00:20 | 31.67247 | -77.68607 | 36087 ft | 479 kts | 192° |
| 2026-05-07 00:20 | 31.60592 | -77.68948 | 36087 ft | 479 kts | 192° |
| 2026-05-07 00:21 | 31.53930 | -77.69288 | 36088 ft | 480 kts | 192° |
| 2026-05-07 00:21 | 31.47255 | -77.69628 | 36092 ft | 480 kts | 192° |
| 2026-05-07 00:22 | 31.40589 | -77.69968 | 36093 ft | 480 kts | 192° |
| 2026-05-07 00:22 | 31.33971 | -77.70305 | 36092 ft | 478 kts | 192° |
| 2026-05-07 00:23 | 31.27307 | -77.70645 | 36093 ft | 478 kts | 192° |
| 2026-05-07 00:23 | 31.20655 | -77.70985 | 36097 ft | 481 kts | 192° |
| 2026-05-07 00:24 | 31.13946 | -77.71323 | 36098 ft | 480 kts | 192° |
| 2026-05-07 00:24 | 31.07268 | -77.71660 | 36099 ft | 480 kts | 192° |
| 2026-05-07 00:25 | 31.00625 | -77.71993 | 36099 ft | 479 kts | 192° |
| 2026-05-07 00:25 | 30.93945 | -77.72333 | 36101 ft | 480 kts | 192° |
| 2026-05-07 00:26 | 30.87274 | -77.72669 | 36092 ft | 479 kts | 191° |
| 2026-05-07 00:26 | 30.80574 | -77.73005 | 36099 ft | 479 kts | 191° |
| 2026-05-07 00:27 | 30.73903 | -77.73342 | 36095 ft | 479 kts | 191° |
| 2026-05-07 00:27 | 30.67278 | -77.73675 | 36097 ft | 480 kts | 191° |
| 2026-05-07 00:28 | 30.60572 | -77.74012 | 36098 ft | 479 kts | 191° |
| 2026-05-07 00:28 | 30.53900 | -77.74345 | 36096 ft | 481 kts | 191° |
| 2026-05-07 00:29 | 30.47217 | -77.74678 | 36100 ft | 481 kts | 191° |
| 2026-05-07 00:30 | 30.33788 | -77.74655 | 36093 ft | 486 kts | 185° |
| 2026-05-07 00:30 | 30.27029 | -77.74288 | 36095 ft | 486 kts | 185° |
| 2026-05-07 00:31 | 30.20268 | -77.73930 | 36096 ft | 487 kts | 185° |
| 2026-05-07 00:31 | 30.13451 | -77.73571 | 36096 ft | 488 kts | 185° |
| 2026-05-07 00:32 | 30.06689 | -77.73216 | 36101 ft | 488 kts | 185° |
| 2026-05-07 00:32 | 29.99940 | -77.72864 | 36097 ft | 486 kts | 185° |
| 2026-05-07 00:33 | 29.93133 | -77.72512 | 36096 ft | 488 kts | 185° |
| 2026-05-07 00:33 | 29.86367 | -77.72158 | 36093 ft | 488 kts | 185° |
| 2026-05-07 00:34 | 29.79606 | -77.71808 | 36100 ft | 488 kts | 185° |
| 2026-05-07 00:34 | 29.72795 | -77.71455 | 36095 ft | 488 kts | 185° |
| 2026-05-07 00:35 | 29.66041 | -77.71103 | 36096 ft | 486 kts | 185° |
| 2026-05-07 00:35 | 29.59284 | -77.70756 | 36099 ft | 487 kts | 185° |
| 2026-05-07 00:36 | 29.52502 | -77.70406 | 36096 ft | 488 kts | 185° |
| 2026-05-07 00:36 | 29.45723 | -77.70057 | 36099 ft | 489 kts | 185° |
| 2026-05-07 00:37 | 29.38935 | -77.69707 | 36096 ft | 488 kts | 185° |
| 2026-05-07 00:37 | 29.32166 | -77.69360 | 36095 ft | 488 kts | 184° |
| 2026-05-07 00:38 | 29.25374 | -77.69010 | 36099 ft | 486 kts | 185° |
| 2026-05-07 00:38 | 29.18596 | -77.68667 | 36097 ft | 487 kts | 184° |
| 2026-05-07 00:39 | 29.11832 | -77.68317 | 36096 ft | 487 kts | 184° |
| 2026-05-07 00:39 | 29.05038 | -77.67945 | 36098 ft | 487 kts | 184° |
| 2026-05-07 00:40 | 28.98278 | -77.67572 | 36099 ft | 487 kts | 184° |
| 2026-05-07 00:40 | 28.91529 | -77.67204 | 36098 ft | 486 kts | 184° |
| 2026-05-07 00:41 | 28.84707 | -77.66833 | 36097 ft | 488 kts | 184° |
| 2026-05-07 00:41 | 28.77934 | -77.66465 | 36098 ft | 488 kts | 184° |
| 2026-05-07 00:42 | 28.71170 | -77.66097 | 36096 ft | 488 kts | 184° |
| 2026-05-07 00:42 | 28.64395 | -77.65730 | 36099 ft | 488 kts | 184° |
| 2026-05-07 00:43 | 28.57596 | -77.65360 | 36099 ft | 488 kts | 183° |
| 2026-05-07 00:43 | 28.50793 | -77.65022 | 36097 ft | 488 kts | 184° |
| 2026-05-07 00:44 | 28.44020 | -77.64719 | 36098 ft | 488 kts | 184° |
| 2026-05-07 00:44 | 28.37233 | -77.64416 | 36097 ft | 489 kts | 184° |
| 2026-05-07 00:45 | 28.30426 | -77.64109 | 36099 ft | 489 kts | 184° |
| 2026-05-07 00:45 | 28.23601 | -77.63799 | 36098 ft | 489 kts | 184° |
| 2026-05-07 00:46 | 28.16817 | -77.63492 | 36097 ft | 488 kts | 183° |
| 2026-05-07 00:46 | 28.10006 | -77.63164 | 36104 ft | 490 kts | 183° |
| 2026-05-07 00:47 | 28.03220 | -77.62745 | 36106 ft | 489 kts | 182° |
| 2026-05-07 00:47 | 27.96401 | -77.62318 | 36101 ft | 489 kts | 182° |
| 2026-05-07 00:48 | 27.89613 | -77.61902 | 36098 ft | 489 kts | 182° |
| 2026-05-07 00:48 | 27.82786 | -77.61486 | 36096 ft | 489 kts | 182° |
| 2026-05-07 00:49 | 27.76007 | -77.61075 | 36097 ft | 490 kts | 182° |
| 2026-05-07 00:49 | 27.69157 | -77.60658 | 36094 ft | 490 kts | 182° |
| 2026-05-07 00:50 | 27.62370 | -77.60248 | 36094 ft | 491 kts | 182° |
| 2026-05-07 00:50 | 27.55515 | -77.59834 | 36091 ft | 491 kts | 182° |
| 2026-05-07 00:51 | 27.48731 | -77.59423 | 36090 ft | 491 kts | 182° |
| 2026-05-07 00:51 | 27.41890 | -77.59011 | 36089 ft | 490 kts | 182° |
| 2026-05-07 00:52 | 27.35087 | -77.58602 | 36087 ft | 491 kts | 181° |
| 2026-05-07 00:52 | 27.28227 | -77.58189 | 36084 ft | 491 kts | 181° |
| 2026-05-07 00:53 | 27.21406 | -77.57777 | 36082 ft | 491 kts | 181° |
| 2026-05-07 00:53 | 27.14548 | -77.57366 | 36081 ft | 491 kts | 181° |
| 2026-05-07 00:54 | 27.07726 | -77.56956 | 36080 ft | 491 kts | 181° |
| 2026-05-07 00:54 | 27.00923 | -77.56548 | 36078 ft | 491 kts | 181° |
| 2026-05-07 00:55 | 26.94081 | -77.56140 | 36078 ft | 492 kts | 181° |
| 2026-05-07 00:55 | 26.87211 | -77.55730 | 36077 ft | 492 kts | 181° |
| 2026-05-07 00:56 | 26.80364 | -77.55321 | 36078 ft | 492 kts | 181° |
| 2026-05-07 00:56 | 26.73578 | -77.54916 | 36079 ft | 491 kts | 181° |
| 2026-05-07 00:57 | 26.66738 | -77.54510 | 36078 ft | 491 kts | 181° |
| 2026-05-07 00:57 | 26.59888 | -77.54103 | 36079 ft | 492 kts | 181° |
| 2026-05-07 00:58 | 26.53064 | -77.53697 | 36079 ft | 492 kts | 181° |
| 2026-05-07 00:58 | 26.46210 | -77.53290 | 36080 ft | 492 kts | 181° |
| 2026-05-07 00:59 | 26.35970 | -77.52683 | 36080 ft | 491 kts | 181° |
| 2026-05-07 01:00 | 26.29133 | -77.52278 | 36079 ft | 491 kts | 181° |
| 2026-05-07 01:00 | 26.22270 | -77.51872 | 36080 ft | 492 kts | 181° |
| 2026-05-07 01:01 | 26.15449 | -77.51470 | 36081 ft | 492 kts | 181° |
| 2026-05-07 01:01 | 26.08629 | -77.51070 | 36080 ft | 491 kts | 181° |
| 2026-05-07 01:02 | 26.01758 | -77.50664 | 36081 ft | 492 kts | 181° |
| 2026-05-07 01:02 | 25.94934 | -77.50262 | 36079 ft | 492 kts | 181° |
| 2026-05-07 01:03 | 25.88095 | -77.49861 | 36074 ft | 492 kts | 180° |
| 2026-05-07 01:03 | 25.81255 | -77.49461 | 36079 ft | 493 kts | 180° |
| 2026-05-07 01:04 | 25.74366 | -77.49055 | 36078 ft | 492 kts | 180° |
| 2026-05-07 01:04 | 25.67559 | -77.48656 | 36079 ft | 492 kts | 180° |
| 2026-05-07 01:05 | 25.60696 | -77.48232 | 36079 ft | 492 kts | 180° |
| 2026-05-07 01:05 | 25.53866 | -77.47807 | 36076 ft | 492 kts | 180° |
| 2026-05-07 01:06 | 25.47040 | -77.47383 | 36078 ft | 492 kts | 180° |
| 2026-05-07 01:06 | 25.40184 | -77.46960 | 36077 ft | 492 kts | 180° |
| 2026-05-07 01:07 | 25.33331 | -77.46536 | 36078 ft | 492 kts | 180° |
| 2026-05-07 01:07 | 25.26524 | -77.46117 | 36081 ft | 493 kts | 180° |
| 2026-05-07 01:08 | 25.19662 | -77.45695 | 36080 ft | 493 kts | 180° |
| 2026-05-07 01:08 | 25.12787 | -77.45271 | 36083 ft | 493 kts | 180° |
| 2026-05-07 01:09 | 25.05905 | -77.44849 | 36087 ft | 493 kts | 180° |
| 2026-05-07 01:09 | 24.99083 | -77.44433 | 36084 ft | 493 kts | 180° |
| 2026-05-07 01:10 | 24.92215 | -77.44021 | 36085 ft | 493 kts | 180° |
| 2026-05-07 01:10 | 24.85360 | -77.43610 | 36083 ft | 492 kts | 180° |
| 2026-05-07 01:11 | 24.78524 | -77.43201 | 36081 ft | 493 kts | 180° |
| 2026-05-07 01:11 | 24.71642 | -77.42790 | 36078 ft | 493 kts | 180° |
| 2026-05-07 01:12 | 24.64805 | -77.42381 | 36079 ft | 493 kts | 180° |
| 2026-05-07 01:12 | 24.57942 | -77.41972 | 36075 ft | 492 kts | 180° |
| 2026-05-07 01:13 | 24.51120 | -77.41567 | 36076 ft | 492 kts | 179° |
| 2026-05-07 01:13 | 24.44258 | -77.41159 | 36076 ft | 492 kts | 179° |
| 2026-05-07 01:14 | 24.37394 | -77.40750 | 36077 ft | 492 kts | 179° |
| 2026-05-07 01:14 | 24.30578 | -77.40345 | 36079 ft | 492 kts | 179° |
| 2026-05-07 01:15 | 24.23727 | -77.39937 | 36077 ft | 491 kts | 179° |
| 2026-05-07 01:15 | 24.16925 | -77.39535 | 36077 ft | 491 kts | 179° |
| 2026-05-07 01:16 | 24.10063 | -77.39130 | 36076 ft | 492 kts | 179° |
| 2026-05-07 01:16 | 24.03225 | -77.38724 | 36078 ft | 492 kts | 179° |
| 2026-05-07 01:17 | 23.96358 | -77.38320 | 36078 ft | 492 kts | 179° |
| 2026-05-07 01:17 | 23.89518 | -77.37917 | 36075 ft | 491 kts | 179° |
| 2026-05-07 01:18 | 23.82655 | -77.37512 | 36075 ft | 492 kts | 179° |
| 2026-05-07 01:18 | 23.75830 | -77.37109 | 36073 ft | 492 kts | 179° |
| 2026-05-07 01:19 | 23.68985 | -77.36706 | 36072 ft | 492 kts | 179° |
| 2026-05-07 01:19 | 23.62156 | -77.36305 | 36066 ft | 491 kts | 179° |
| 2026-05-07 01:20 | 23.55337 | -77.35993 | 36063 ft | 490 kts | 182° |
| 2026-05-07 01:20 | 23.48511 | -77.36159 | 36064 ft | 489 kts | 184° |
| 2026-05-07 01:21 | 23.41709 | -77.36372 | 36063 ft | 489 kts | 184° |
| 2026-05-07 01:21 | 23.34907 | -77.36580 | 36062 ft | 489 kts | 184° |
| 2026-05-07 01:22 | 23.28098 | -77.36783 | 36061 ft | 490 kts | 184° |
| 2026-05-07 01:22 | 23.21243 | -77.36986 | 36061 ft | 489 kts | 184° |
| 2026-05-07 01:23 | 23.14448 | -77.37186 | 36061 ft | 490 kts | 184° |
| 2026-05-07 01:23 | 23.07624 | -77.37386 | 36060 ft | 489 kts | 184° |
| 2026-05-07 01:24 | 23.00814 | -77.37586 | 36058 ft | 488 kts | 184° |
| 2026-05-07 01:24 | 22.94024 | -77.37785 | 36057 ft | 488 kts | 184° |
| 2026-05-07 01:25 | 22.87237 | -77.37985 | 36055 ft | 488 kts | 184° |
| 2026-05-07 01:25 | 22.80432 | -77.38184 | 36054 ft | 489 kts | 184° |
| 2026-05-07 01:26 | 22.73588 | -77.38385 | 36055 ft | 489 kts | 184° |
| 2026-05-07 01:26 | 22.66819 | -77.38582 | 36055 ft | 489 kts | 184° |
| 2026-05-07 01:27 | 22.59969 | -77.38783 | 36056 ft | 488 kts | 183° |
| 2026-05-07 01:27 | 22.53189 | -77.38982 | 36058 ft | 489 kts | 183° |
| 2026-05-07 01:28 | 22.46341 | -77.39180 | 36059 ft | 489 kts | 183° |
| 2026-05-07 01:28 | 22.39565 | -77.39377 | 36059 ft | 488 kts | 184° |
| 2026-05-07 01:29 | 22.32764 | -77.39576 | 36059 ft | 489 kts | 183° |
| 2026-05-07 01:29 | 22.25927 | -77.39774 | 36059 ft | 488 kts | 183° |
| 2026-05-07 01:30 | 22.19118 | -77.39972 | 36059 ft | 488 kts | 183° |
| 2026-05-07 01:30 | 22.12299 | -77.40169 | 36059 ft | 489 kts | 183° |
| 2026-05-07 01:31 | 22.05490 | -77.40368 | 36059 ft | 489 kts | 183° |
| 2026-05-07 01:31 | 21.98711 | -77.40564 | 36058 ft | 489 kts | 183° |
| 2026-05-07 01:32 | 21.91875 | -77.40761 | 36058 ft | 488 kts | 183° |
| 2026-05-07 01:32 | 21.85057 | -77.40958 | 36057 ft | 488 kts | 183° |
| 2026-05-07 01:33 | 21.78274 | -77.41154 | 36057 ft | 488 kts | 183° |
| 2026-05-07 01:33 | 21.71490 | -77.41351 | 36057 ft | 488 kts | 183° |
| 2026-05-07 01:34 | 21.64654 | -77.41547 | 36057 ft | 488 kts | 183° |
| 2026-05-07 01:34 | 21.57862 | -77.41741 | 36057 ft | 487 kts | 183° |
| 2026-05-07 01:35 | 21.51076 | -77.41937 | 36057 ft | 487 kts | 182° |
| 2026-05-07 01:35 | 21.44295 | -77.42133 | 36057 ft | 486 kts | 182° |
| 2026-05-07 01:36 | 21.37520 | -77.42327 | 36057 ft | 487 kts | 183° |
| 2026-05-07 01:36 | 21.30744 | -77.42521 | 36057 ft | 486 kts | 183° |
| 2026-05-07 01:37 | 21.23985 | -77.42715 | 36058 ft | 486 kts | 182° |
| 2026-05-07 01:37 | 21.17224 | -77.42910 | 36059 ft | 486 kts | 182° |
| 2026-05-07 01:38 | 21.10471 | -77.43102 | 36060 ft | 486 kts | 182° |
| 2026-05-07 01:38 | 21.03675 | -77.43295 | 36064 ft | 486 kts | 182° |
| 2026-05-07 01:39 | 20.96925 | -77.43489 | 36066 ft | 485 kts | 182° |
| 2026-05-07 01:39 | 20.90163 | -77.43683 | 36065 ft | 485 kts | 182° |
| 2026-05-07 01:40 | 20.83414 | -77.43877 | 36063 ft | 485 kts | 182° |
| 2026-05-07 01:40 | 20.76619 | -77.44070 | 36061 ft | 485 kts | 182° |
| 2026-05-07 01:41 | 20.69871 | -77.44263 | 36061 ft | 486 kts | 182° |
| 2026-05-07 01:41 | 20.63106 | -77.44456 | 36060 ft | 486 kts | 182° |
| 2026-05-07 01:42 | 20.56332 | -77.44649 | 36060 ft | 486 kts | 182° |
| 2026-05-07 01:42 | 20.49562 | -77.44828 | 36060 ft | 486 kts | 182° |
| 2026-05-07 01:43 | 20.42783 | -77.44999 | 36060 ft | 486 kts | 182° |
| 2026-05-07 01:43 | 20.36017 | -77.45171 | 36066 ft | 486 kts | 182° |
| 2026-05-07 01:44 | 20.29242 | -77.45344 | 36066 ft | 486 kts | 182° |
| 2026-05-07 01:44 | 20.22448 | -77.45518 | 36068 ft | 487 kts | 182° |
| 2026-05-07 01:45 | 20.15668 | -77.45690 | 36074 ft | 486 kts | 182° |
| 2026-05-07 01:45 | 20.08901 | -77.45862 | 36077 ft | 487 kts | 182° |
| 2026-05-07 01:46 | 20.02106 | -77.46034 | 36083 ft | 487 kts | 182° |
| 2026-05-07 01:46 | 19.95348 | -77.46205 | 36083 ft | 486 kts | 182° |
| 2026-05-07 01:47 | 19.88574 | -77.46378 | 36075 ft | 486 kts | 182° |
| 2026-05-07 01:47 | 19.81752 | -77.46551 | 35729 ft | 491 kts | 181° |
| 2026-05-07 01:47 | 19.78348 | -77.46638 | 34769 ft | 495 kts | 181° |
| 2026-05-07 01:48 | 19.74892 | -77.46725 | 33947 ft | 495 kts | 181° |
| 2026-05-07 01:48 | 19.71436 | -77.46812 | 33164 ft | 494 kts | 181° |
| 2026-05-07 01:48 | 19.68033 | -77.46897 | 32448 ft | 493 kts | 181° |
| 2026-05-07 01:48 | 19.64598 | -77.46984 | 31781 ft | 491 kts | 181° |
| 2026-05-07 01:49 | 19.61183 | -77.47070 | 31363 ft | 484 kts | 181° |
| 2026-05-07 01:49 | 19.57831 | -77.47155 | 30897 ft | 478 kts | 181° |
| 2026-05-07 01:49 | 19.54515 | -77.47238 | 30439 ft | 472 kts | 181° |
| 2026-05-07 01:49 | 19.51290 | -77.47178 | 29981 ft | 467 kts | 175° |
| 2026-05-07 01:50 | 19.48084 | -77.46748 | 29547 ft | 460 kts | 168° |
| 2026-05-07 01:50 | 19.44990 | -77.45959 | 29118 ft | 453 kts | 162° |
| 2026-05-07 01:50 | 19.42014 | -77.44921 | 28703 ft | 447 kts | 159° |
| 2026-05-07 01:50 | 19.39057 | -77.43827 | 28280 ft | 442 kts | 159° |
| 2026-05-07 01:51 | 19.36176 | -77.42753 | 27842 ft | 438 kts | 159° |
| 2026-05-07 01:51 | 19.33310 | -77.41690 | 27377 ft | 435 kts | 159° |
| 2026-05-07 01:51 | 19.30454 | -77.40638 | 26904 ft | 432 kts | 159° |
| 2026-05-07 01:51 | 19.27633 | -77.39603 | 26438 ft | 429 kts | 159° |
| 2026-05-07 01:52 | 19.24818 | -77.38573 | 25957 ft | 426 kts | 159° |
| 2026-05-07 01:52 | 19.22022 | -77.37552 | 25479 ft | 424 kts | 159° |
| 2026-05-07 01:52 | 19.19248 | -77.36540 | 25006 ft | 422 kts | 158° |
| 2026-05-07 01:52 | 19.16485 | -77.35532 | 24526 ft | 419 kts | 158° |
| 2026-05-07 01:53 | 19.13721 | -77.34524 | 24056 ft | 417 kts | 159° |
| 2026-05-07 01:53 | 19.10957 | -77.33516 | 23600 ft | 414 kts | 158° |
| 2026-05-07 01:53 | 19.08240 | -77.32526 | 23170 ft | 411 kts | 158° |
| 2026-05-07 01:53 | 19.05565 | -77.31553 | 22711 ft | 409 kts | 158° |
| 2026-05-07 01:54 | 19.02869 | -77.30572 | 22239 ft | 408 kts | 158° |
| 2026-05-07 01:54 | 19.00185 | -77.29594 | 21793 ft | 406 kts | 158° |
| 2026-05-07 01:54 | 18.97514 | -77.28618 | 21335 ft | 405 kts | 157° |
| 2026-05-07 01:54 | 18.94900 | -77.27534 | 20891 ft | 402 kts | 153° |
| 2026-05-07 01:55 | 18.92361 | -77.26314 | 20446 ft | 399 kts | 152° |
| 2026-05-07 01:55 | 18.89845 | -77.25075 | 19989 ft | 397 kts | 152° |
| 2026-05-07 01:55 | 18.87342 | -77.23838 | 19530 ft | 396 kts | 152° |
| 2026-05-07 01:55 | 18.84855 | -77.22610 | 19083 ft | 393 kts | 153° |
| 2026-05-07 01:56 | 18.82382 | -77.21391 | 18639 ft | 391 kts | 153° |
| 2026-05-07 01:56 | 18.79922 | -77.20180 | 18196 ft | 388 kts | 153° |
| 2026-05-07 01:56 | 18.77487 | -77.18983 | 17763 ft | 386 kts | 153° |
| 2026-05-07 01:56 | 18.75063 | -77.17792 | 17320 ft | 383 kts | 153° |
| 2026-05-07 01:57 | 18.72646 | -77.16605 | 16877 ft | 380 kts | 153° |
| 2026-05-07 01:57 | 18.70254 | -77.15430 | 16432 ft | 378 kts | 154° |
| 2026-05-07 01:57 | 18.67879 | -77.14265 | 15986 ft | 375 kts | 154° |
| 2026-05-07 01:57 | 18.65519 | -77.13107 | 15552 ft | 372 kts | 154° |
| 2026-05-07 01:58 | 18.63167 | -77.11955 | 15119 ft | 369 kts | 154° |
| 2026-05-07 01:58 | 18.60845 | -77.10816 | 14685 ft | 366 kts | 154° |
| 2026-05-07 01:58 | 18.58543 | -77.09689 | 14251 ft | 364 kts | 154° |
| 2026-05-07 01:58 | 18.56274 | -77.08577 | 13814 ft | 361 kts | 154° |
| 2026-05-07 01:59 | 18.53999 | -77.07462 | 13380 ft | 358 kts | 154° |
| 2026-05-07 01:59 | 18.51734 | -77.06354 | 12969 ft | 355 kts | 154° |
| 2026-05-07 01:59 | 18.49490 | -77.05256 | 12552 ft | 352 kts | 154° |
| 2026-05-07 01:59 | 18.47295 | -77.04182 | 12137 ft | 349 kts | 154° |
| 2026-05-07 02:00 | 18.45085 | -77.03103 | 11703 ft | 347 kts | 154° |
| 2026-05-07 02:00 | 18.42897 | -77.02032 | 11279 ft | 344 kts | 154° |
| 2026-05-07 02:00 | 18.40727 | -77.00970 | 10861 ft | 342 kts | 153° |
| 2026-05-07 02:00 | 18.38579 | -76.99920 | 10440 ft | 339 kts | 153° |
| 2026-05-07 02:01 | 18.36470 | -76.98888 | 10243 ft | 327 kts | 153° |
| 2026-05-07 02:01 | 18.34454 | -76.97902 | 10121 ft | 315 kts | 153° |
| 2026-05-07 02:01 | 18.32488 | -76.96940 | 9908 ft | 306 kts | 153° |
| 2026-05-07 02:01 | 18.30568 | -76.96001 | 9608 ft | 301 kts | 153° |
| 2026-05-07 02:02 | 18.28673 | -76.95071 | 9265 ft | 298 kts | 153° |
| 2026-05-07 02:02 | 18.26792 | -76.94149 | 8816 ft | 298 kts | 153° |
| 2026-05-07 02:02 | 18.24926 | -76.93237 | 8405 ft | 294 kts | 152° |
| 2026-05-07 02:02 | 18.23091 | -76.92339 | 8018 ft | 288 kts | 153° |
| 2026-05-07 02:03 | 18.21245 | -76.91550 | 7619 ft | 286 kts | 165° |
| 2026-05-07 02:03 | 18.19278 | -76.91622 | 7224 ft | 287 kts | 196° |
| 2026-05-07 02:03 | 18.17570 | -76.92683 | 6857 ft | 286 kts | 224° |
| 2026-05-07 02:03 | 18.16358 | -76.94325 | 6518 ft | 283 kts | 234° |
| 2026-05-07 02:04 | 18.15222 | -76.96008 | 6171 ft | 282 kts | 232° |
| 2026-05-07 02:04 | 18.14005 | -76.97617 | 5829 ft | 281 kts | 229° |
| 2026-05-07 02:04 | 18.12691 | -76.99109 | 5495 ft | 279 kts | 224° |
| 2026-05-07 02:04 | 18.11272 | -77.00496 | 5159 ft | 278 kts | 220° |
| 2026-05-07 02:05 | 18.09758 | -77.01768 | 4811 ft | 276 kts | 215° |
| 2026-05-07 02:05 | 18.08191 | -77.02903 | 4478 ft | 274 kts | 211° |
| 2026-05-07 02:05 | 18.06522 | -77.03891 | 4117 ft | 273 kts | 200° |
| 2026-05-07 02:05 | 18.04688 | -77.04072 | 3741 ft | 267 kts | 164° |
| 2026-05-07 02:06 | 18.03111 | -77.03158 | 3483 ft | 255 kts | 130° |
| 2026-05-07 02:06 | 18.02243 | -77.01611 | 3435 ft | 237 kts | 110° |
| 2026-05-07 02:06 | 18.01699 | -77.00039 | 3372 ft | 225 kts | 107° |
| 2026-05-07 02:06 | 18.01188 | -76.98523 | 3307 ft | 214 kts | 108° |
| 2026-05-07 02:07 | 18.00663 | -76.97066 | 3299 ft | 207 kts | 110° |
| 2026-05-07 02:07 | 17.99645 | -76.94423 | 2937 ft | 190 kts | 110° |
| 2026-05-07 02:07 | 17.99153 | -76.93166 | 2676 ft | 184 kts | 111° |
| 2026-05-07 02:08 | 17.98673 | -76.91937 | 2434 ft | 175 kts | 111° |
| 2026-05-07 02:08 | 17.98233 | -76.90811 | 2207 ft | 160 kts | 111° |
| 2026-05-07 02:08 | 17.97831 | -76.89778 | 2047 ft | 148 kts | 110° |
| 2026-05-07 02:08 | 17.97458 | -76.88814 | 1825 ft | 136 kts | 110° |
| 2026-05-07 02:09 | 17.97107 | -76.87909 | 1668 ft | 134 kts | 110° |
| 2026-05-07 02:09 | 17.96755 | -76.87001 | 1485 ft | 133 kts | 110° |
| 2026-05-07 02:09 | 17.96406 | -76.86096 | 1313 ft | 133 kts | 111° |
| 2026-05-07 02:09 | 17.96058 | -76.85197 | 1139 ft | 133 kts | 111° |
| 2026-05-07 02:10 | 17.95711 | -76.84305 | 964 ft | 132 kts | 111° |
| 2026-05-07 02:10 | 17.95364 | -76.83415 | 771 ft | 131 kts | 112° |
| 2026-05-07 02:10 | 17.95027 | -76.82543 | 608 ft | 129 kts | 111° |
| 2026-05-07 02:10 | 17.94692 | -76.81664 | 416 ft | 128 kts | 111° |
| 2026-05-07 02:11 | 17.94362 | -76.80792 | 245 ft | 128 kts | 112° |
| 2026-05-07 02:11 | 17.94027 | -76.79927 | 75 ft | 127 kts | 112° |
| 2026-05-07 02:11 | 17.93715 | -76.79128 | 30 ft | 94 kts | 112° |
| 2026-05-07 02:11 | 17.93540 | -76.78680 | 30 ft | 52 kts | 112° |
| 2026-05-07 02:12 | 17.93417 | -76.78364 | 30 ft | 37 kts | 104° |
| 2026-05-07 02:12 | 17.93409 | -76.78153 | 30 ft | 19 kts | 78° |
| 2026-05-07 02:12 | 17.93451 | -76.78078 | 30 ft | 10 kts | 50° |
| 2026-05-07 02:12 | 17.93488 | -76.78009 | 31 ft | 10 kts | 59° |
| 2026-05-07 02:13 | 17.93527 | -76.77972 | 31 ft | 5 kts | 12° |
| 2026-05-07 02:13 | 17.93555 | -76.77976 | 31 ft | 3 kts | 354° |
| 2026-05-07 02:13 | 17.93567 | -76.77977 | 31 ft | 0 kts | 354° |